Time;durP1;ratioP1;P1;durP2;ratioP2;P2;SDS_P1;SDS_P2;PMS_P1;PMS_P2;Temp;Humidity;BMP_temperature;BMP_pressure;BME280_temperature;BME280_humidity;BME280_pressure;Samples;Min_cycle;Max_cycle;Signal;HPM_P1;HPM_P2
2021/09/15 00:01:36;;;;;;;7.20;5.70;;;19.70;90.70;;;;;;2043405;29;20032;-90
2021/09/15 00:03:21;;;;;;;6.50;4.97;;;19.60;90.60;;;;;;2051824;29;20076;-90
2021/09/15 00:04:43;;;;;;;7.35;5.20;;;19.70;90.60;;;;;;2045114;29;20028;-90
2021/09/15 00:06:49;;;;;;;6.07;5.10;;;19.70;90.60;;;;;;2057225;28;20039;-91
2021/09/15 00:08:37;;;;;;;;;;;;;;;;;;;;;
2021/09/15 00:12:37;;;;;;;6.95;4.90;;;19.70;90.60;;;;;;2068073;28;20027;-94
2021/09/15 00:14:07;;;;;;;5.45;4.30;;;19.70;90.60;;;;;;2043533;29;20071;-94
2021/09/15 00:16:04;;;;;;;6.03;4.88;;;19.70;90.60;;;;;;2043251;29;20036;-92
2021/09/15 00:19:12;;;;;;;5.55;4.47;;;19.70;90.60;;;;;;2058231;28;20054;-89
2021/09/15 00:20:58;;;;;;;5.63;4.47;;;19.70;90.60;;;;;;2028411;29;20025;-90
2021/09/15 00:22:20;;;;;;;6.50;4.47;;;19.70;90.60;;;;;;2049781;28;20047;-91
2021/09/15 00:24:24;;;;;;;7.53;4.50;;;19.70;90.60;;;;;;2045467;29;20028;-90
2021/09/15 00:52:16;;;;;;;5.40;3.55;;;19.50;90.60;;;;;;2068012;28;20026;-95
2021/09/15 00:54:07;;;;;;;5.47;4.00;;;19.50;90.60;;;;;;2065956;28;20039;-94
2021/09/15 00:55:37;;;;;;;5.32;3.83;;;19.50;90.60;;;;;;2049095;29;20040;-95
2021/09/15 00:57:13;;;;;;;7.10;4.18;;;19.50;90.70;;;;;;2055788;28;20046;-94
2021/09/15 00:59:32;;;;;;;6.13;4.30;;;19.50;90.70;;;;;;2058222;29;20027;-94
2021/09/15 01:01:10;;;;;;;6.57;4.43;;;19.50;90.70;;;;;;2066351;28;20038;-95
2021/09/15 01:02:44;;;;;;;5.60;4.00;;;19.50;90.70;;;;;;2049979;29;20044;-96
2021/09/15 01:04:05;;;;;;;5.07;4.10;;;19.50;90.80;;;;;;2049716;29;20059;-95
2021/09/15 01:06:45;;;;;;;5.90;4.00;;;19.40;90.80;;;;;;2072453;28;20038;-95
2021/09/15 01:08:24;;;;;;;6.00;4.78;;;19.40;90.90;;;;;;2074830;28;20058;-95
2021/09/15 01:12:26;;;;;;;4.72;3.90;;;19.40;90.90;;;;;;2074177;28;20042;-96
2021/09/15 01:14:08;;;;;;;5.88;4.20;;;19.30;90.90;;;;;;2054616;29;20043;-94
2021/09/15 01:19:54;;;;;;;5.65;4.25;;;19.30;91.00;;;;;;2043488;29;20068;-94
2021/09/15 01:21:18;;;;;;;4.63;3.75;;;19.20;91.00;;;;;;2041823;29;20032;-94
2021/09/15 01:23:17;;;;;;;4.88;3.88;;;19.30;91.00;;;;;;2035272;29;20025;-95
2021/09/15 01:25:27;;;;;;;5.30;4.18;;;19.20;91.00;;;;;;2026041;29;20021;-95
2021/09/15 01:27:29;;;;;;;5.22;4.03;;;19.20;91.00;;;;;;2000823;29;20065;-94
2021/09/15 01:35:03;;;;;;;5.00;4.00;;;19.20;91.10;;;;;;2059136;29;20032;-96
2021/09/15 01:37:28;;;;;;;;;;;;;;;;;;;;;
2021/09/15 01:38:55;;;;;;;4.97;3.70;;;19.20;91.00;;;;;;2019738;29;20041;-94
2021/09/15 01:40:49;;;;;;;6.15;4.32;;;19.20;91.10;;;;;;2011732;29;20042;-96
2021/09/15 01:42:37;;;;;;;5.13;3.90;;;19.10;91.30;;;;;;2013563;29;20022;-95
2021/09/15 01:46:35;;;;;;;4.57;3.45;;;19.00;91.10;;;;;;1968846;30;20099;-96
2021/09/15 01:48:39;;;;;;;6.40;4.18;;;19.00;91.10;;;;;;2004474;28;20055;-94
2021/09/15 01:50:57;;;;;;;4.80;3.67;;;19.00;91.10;;;;;;2052031;29;20051;-96
2021/09/15 01:55:04;;;;;;;6.88;3.70;;;18.90;91.10;;;;;;2052003;29;20023;-96
2021/09/15 01:56:43;;;;;;;4.97;3.75;;;18.90;91.10;;;;;;2046448;29;20032;-96
2021/09/15 02:01:15;;;;;;;6.38;4.07;;;18.90;91.20;;;;;;2076004;28;20078;-95
2021/09/15 02:02:42;;;;;;;5.22;3.63;;;18.80;91.20;;;;;;2068313;28;20046;-94
2021/09/15 02:04:31;;;;;;;5.30;4.07;;;18.80;91.30;;;;;;2043839;29;20028;-95
2021/09/15 02:05:59;;;;;;;5.35;4.10;;;18.80;91.30;;;;;;2058828;29;20102;-95
2021/09/15 02:07:24;;;;;;;;;;;18.80;91.40;;;;;;2066615;28;20023;-95
2021/09/15 02:08:59;;;;;;;5.07;3.70;;;18.70;91.30;;;;;;2059194;29;19914;-94
2021/09/15 02:10:59;;;;;;;5.47;4.20;;;18.70;91.40;;;;;;2058742;29;20027;-94
2021/09/15 02:16:19;;;;;;;5.78;4.30;;;18.70;91.50;;;;;;2066557;28;20098;-94
2021/09/15 02:17:50;;;;;;;6.15;4.47;;;18.70;91.50;;;;;;2074368;28;20046;-94
2021/09/15 02:19:14;;;;;;;5.57;4.15;;;18.70;91.50;;;;;;2058578;29;20095;-94
2021/09/15 02:20:36;;;;;;;5.60;4.45;;;18.70;91.50;;;;;;2056402;29;20039;-94
2021/09/15 02:22:08;;;;;;;5.32;4.35;;;18.70;91.50;;;;;;2060589;28;20035;-94
2021/09/15 02:23:48;;;;;;;6.13;5.00;;;18.70;91.50;;;;;;2050320;29;20039;-95
2021/09/15 02:25:15;;;;;;;5.22;4.10;;;18.70;91.50;;;;;;2042614;29;20028;-95
2021/09/15 02:26:38;;;;;;;6.32;4.60;;;18.70;91.60;;;;;;2025219;29;20037;-95
2021/09/15 02:28:30;;;;;;;5.80;4.80;;;18.70;91.60;;;;;;2011405;29;20050;-95
2021/09/15 02:32:57;;;;;;;6.57;4.43;;;18.70;91.60;;;;;;2066612;28;20030;-93
2021/09/15 02:34:24;;;;;;;5.90;4.68;;;18.70;91.60;;;;;;2051125;29;20044;-94
2021/09/15 02:35:45;;;;;;;6.00;4.65;;;18.70;91.60;;;;;;2062266;28;20042;-94
2021/09/15 02:37:19;;;;;;;;;;;18.70;91.60;;;;;;2066356;28;20046;-94
2021/09/15 02:38:41;;;;;;;5.05;4.00;;;18.70;91.60;;;;;;2050777;29;19966;-93
2021/09/15 02:40:04;;;;;;;5.85;4.47;;;18.70;91.60;;;;;;2056895;29;20031;-95
2021/09/15 02:41:24;;;;;;;5.97;4.50;;;18.70;91.60;;;;;;2040897;29;20099;-94
2021/09/15 02:42:47;;;;;;;5.20;4.18;;;18.70;91.60;;;;;;2046880;29;20047;-94
2021/09/15 02:44:11;;;;;;;6.22;4.50;;;18.70;91.60;;;;;;2048681;29;20079;-95
2021/09/15 02:45:31;;;;;;;5.78;4.57;;;18.70;91.60;;;;;;2054464;29;20043;-93
2021/09/15 02:47:00;;;;;;;5.40;4.50;;;18.70;91.60;;;;;;2046369;29;20035;-94
2021/09/15 02:48:20;;;;;;;5.65;4.35;;;18.80;91.70;;;;;;2046714;29;20044;-94
2021/09/15 02:49:44;;;;;;;7.45;4.82;;;18.80;91.70;;;;;;2059431;28;20055;-94
2021/09/15 02:51:10;;;;;;;6.00;4.63;;;18.80;91.70;;;;;;2048580;29;20032;-95
2021/09/15 02:52:30;;;;;;;6.13;4.65;;;18.80;91.70;;;;;;2047020;29;20044;-93
2021/09/15 02:53:54;;;;;;;7.00;5.20;;;18.80;91.60;;;;;;2050539;29;20079;-95
2021/09/15 02:55:23;;;;;;;6.05;4.70;;;18.80;91.60;;;;;;2057132;29;20043;-95
2021/09/15 02:56:59;;;;;;;5.40;4.20;;;18.80;91.60;;;;;;2051349;29;20043;-94
2021/09/15 02:58:19;;;;;;;5.88;4.35;;;18.80;91.60;;;;;;2050946;29;20036;-94
2021/09/15 02:59:44;;;;;;;5.43;4.53;;;18.80;91.60;;;;;;2028506;29;20037;-94
2021/09/15 03:01:06;;;;;;;6.05;4.38;;;18.90;91.60;;;;;;2038955;29;20044;-94
2021/09/15 03:02:32;;;;;;;6.90;4.90;;;18.80;91.60;;;;;;2041005;28;20033;-94
2021/09/15 03:03:55;;;;;;;6.30;4.93;;;18.80;91.60;;;;;;2029644;29;20033;-95
2021/09/15 03:05:19;;;;;;;6.60;4.90;;;18.90;91.60;;;;;;2033866;29;20041;-95
2021/09/15 03:06:59;;;;;;;;;;;;;;;;;;;;;
2021/09/15 03:08:28;;;;;;;6.10;4.72;;;18.90;91.60;;;;;;2026394;29;20037;-94
2021/09/15 03:09:48;;;;;;;5.60;4.40;;;18.90;91.70;;;;;;2040999;29;20037;-94
2021/09/15 03:11:17;;;;;;;5.90;4.78;;;18.90;91.60;;;;;;2042382;29;20044;-94
2021/09/15 03:13:06;;;;;;;5.57;4.45;;;18.90;91.70;;;;;;2029283;29;20049;-94
2021/09/15 03:14:40;;;;;;;5.65;4.60;;;18.90;91.60;;;;;;2042768;29;20028;-94
2021/09/15 03:16:05;;;;;;;6.05;4.18;;;18.90;91.70;;;;;;2042604;29;20037;-94
2021/09/15 03:17:26;;;;;;;6.15;4.63;;;18.90;91.60;;;;;;2042456;29;20048;-94
2021/09/15 03:18:47;;;;;;;5.57;4.75;;;18.90;91.60;;;;;;2042505;29;20032;-95
2021/09/15 03:20:09;;;;;;;5.90;4.72;;;18.90;91.60;;;;;;2034754;29;20029;-95
2021/09/15 03:21:29;;;;;;;6.05;4.95;;;18.90;91.70;;;;;;2039185;29;20044;-94
2021/09/15 03:22:37;;;;;;;5.97;4.97;;;18.90;91.70;;;;;;2062433;28;20051;-93
2021/09/15 03:23:59;;;;;;;6.13;4.80;;;18.90;91.70;;;;;;2066872;28;20513;-93
2021/09/15 03:25:24;;;;;;;6.20;4.97;;;18.90;91.70;;;;;;2063755;28;20031;-94
2021/09/15 03:26:47;;;;;;;6.55;4.78;;;18.90;91.70;;;;;;2064080;28;20038;-94
2021/09/15 03:28:09;;;;;;;6.18;5.03;;;18.90;91.70;;;;;;2059840;28;20042;-95
2021/09/15 03:29:34;;;;;;;6.13;5.30;;;18.90;91.70;;;;;;2053460;29;20047;-94
2021/09/15 03:30:55;;;;;;;5.65;4.70;;;18.90;91.70;;;;;;2062287;28;20039;-92
2021/09/15 03:32:21;;;;;;;6.47;4.80;;;18.90;91.70;;;;;;2048052;29;20047;-93
2021/09/15 03:33:43;;;;;;;5.85;4.82;;;19.00;91.70;;;;;;2052508;28;20270;-94
2021/09/15 03:35:06;;;;;;;6.72;4.90;;;18.90;91.70;;;;;;2063286;28;20031;-93
2021/09/15 03:36:27;;;;;;;5.45;4.63;;;18.90;91.70;;;;;;2053053;29;20047;-94
2021/09/15 03:37:50;;;;;;;6.78;5.07;;;18.90;91.70;;;;;;2056038;29;20102;-95
2021/09/15 03:39:11;;;;;;;6.13;5.05;;;18.90;91.70;;;;;;2062975;28;20039;-94
2021/09/15 03:40:33;;;;;;;6.03;5.30;;;19.00;91.80;;;;;;2071835;28;20117;-94
2021/09/15 03:41:54;;;;;;;6.30;5.25;;;19.00;91.80;;;;;;2057529;28;20103;-94
2021/09/15 03:43:21;;;;;;;6.70;4.90;;;19.00;91.80;;;;;;2063031;28;20042;-93
2021/09/15 03:44:40;;;;;;;5.68;4.80;;;19.00;91.80;;;;;;2057904;28;20035;-94
2021/09/15 03:46:02;;;;;;;6.70;5.15;;;19.00;91.70;;;;;;2071774;28;20026;-91
2021/09/15 03:47:24;;;;;;;6.20;4.78;;;19.00;91.70;;;;;;2062453;28;20063;-91
2021/09/15 03:48:46;;;;;;;6.32;5.10;;;19.00;91.80;;;;;;2053435;28;20035;-94
2021/09/15 03:50:12;;;;;;;6.43;5.30;;;19.00;91.80;;;;;;2056313;28;20027;-92
2021/09/15 03:51:35;;;;;;;6.32;4.95;;;19.00;91.80;;;;;;2070484;28;20082;-91
2021/09/15 03:52:59;;;;;;;7.05;5.57;;;19.00;91.80;;;;;;2073499;28;20050;-93
2021/09/15 03:54:20;;;;;;;5.72;4.95;;;19.00;91.80;;;;;;2065683;28;20027;-92
2021/09/15 03:55:44;;;;;;;6.20;4.97;;;19.00;91.80;;;;;;2062559;28;20083;-90
2021/09/15 03:57:13;;;;;;;7.25;5.00;;;19.00;91.80;;;;;;2064519;28;20020;-91
2021/09/15 03:58:33;;;;;;;6.28;5.07;;;19.00;91.80;;;;;;2072336;28;20030;-92
2021/09/15 03:59:55;;;;;;;7.32;5.03;;;19.00;91.80;;;;;;2051912;28;20044;-91
2021/09/15 04:01:14;;;;;;;6.20;5.18;;;19.00;91.80;;;;;;2066810;28;20042;-95
2021/09/15 04:02:37;;;;;;;5.78;4.60;;;19.00;91.90;;;;;;2074869;28;20038;-95
2021/09/15 04:03:59;;;;;;;6.20;4.90;;;19.00;91.90;;;;;;2074384;28;20038;-94
2021/09/15 04:05:21;;;;;;;7.05;4.95;;;18.90;91.90;;;;;;2074828;28;20065;-94
2021/09/15 04:06:54;;;;;;;5.90;4.63;;;18.90;92.20;;;;;;2052681;28;20031;-93
2021/09/15 04:08:43;;;;;;;6.03;5.20;;;19.00;91.90;;;;;;2062475;28;20018;-90
2021/09/15 04:10:03;;;;;;;6.45;5.03;;;18.90;91.90;;;;;;2063713;28;20039;-92
2021/09/15 04:11:23;;;;;;;6.65;4.95;;;18.90;91.90;;;;;;2064989;28;20058;-93
2021/09/15 04:12:47;;;;;;;6.10;4.95;;;18.90;91.90;;;;;;2067429;28;20026;-93
2021/09/15 04:14:09;;;;;;;6.05;4.75;;;18.90;91.90;;;;;;2070385;28;20010;-95
2021/09/15 04:15:36;;;;;;;5.22;4.55;;;18.90;91.90;;;;;;2061769;28;20023;-91
2021/09/15 04:17:19;;;;;;;5.68;4.78;;;18.90;91.90;;;;;;2054307;29;20122;-95
2021/09/15 04:18:43;;;;;;;6.13;4.80;;;18.90;91.90;;;;;;2065727;28;20058;-95
2021/09/15 04:20:05;;;;;;;5.70;4.63;;;18.90;91.90;;;;;;2059232;28;20047;-95
2021/09/15 04:21:26;;;;;;;5.30;4.57;;;18.90;92.00;;;;;;2061205;28;20042;-93
2021/09/15 04:22:52;;;;;;;6.82;5.13;;;18.90;92.00;;;;;;2058212;28;20083;-91
2021/09/15 04:31:10;;;;;;;6.03;4.60;;;18.90;92.00;;;;;;2057261;28;20023;-91
2021/09/15 04:31:25;;;;;;;6.30;4.53;;;18.90;91.90;;;;;;2075901;28;20034;-90
2021/09/15 04:32:45;;;;;;;6.25;4.78;;;18.90;91.90;;;;;;2060915;28;20039;-91
2021/09/15 04:34:05;;;;;;;6.13;4.45;;;18.90;91.90;;;;;;2078167;28;20034;-91
2021/09/15 04:35:25;;;;;;;5.38;4.40;;;18.80;92.20;;;;;;2075562;28;20019;-91
2021/09/15 04:36:44;;;;;;;5.53;4.35;;;18.90;92.00;;;;;;2057436;28;20047;-94
2021/09/15 04:38:04;;;;;;;7.93;4.75;;;18.80;92.00;;;;;;2075563;28;20026;-92
2021/09/15 04:39:23;;;;;;;6.20;4.93;;;18.80;92.00;;;;;;2054791;29;20028;-90
2021/09/15 04:40:42;;;;;;;7.80;5.07;;;18.80;92.00;;;;;;2039221;28;20075;-92
2021/09/15 04:42:02;;;;;;;6.80;4.93;;;18.90;92.10;;;;;;2050663;29;20055;-93
2021/09/15 04:43:21;;;;;;;6.72;4.63;;;18.80;92.00;;;;;;2053867;28;20533;-92
2021/09/15 04:44:40;;;;;;;6.00;4.70;;;18.90;92.10;;;;;;2047870;28;20099;-91
2021/09/15 04:46:01;;;;;;;6.85;4.78;;;18.90;92.10;;;;;;2048700;28;20031;-93
2021/09/15 04:47:21;;;;;;;;;;;18.80;92.10;;;;;;2049344;28;20126;-92
2021/09/15 04:48:41;;;;;;;5.53;4.35;;;18.80;92.00;;;;;;2047189;29;19922;-92
2021/09/15 04:50:00;;;;;;;6.15;4.85;;;18.80;92.00;;;;;;2052179;28;20039;-92
2021/09/15 04:51:20;;;;;;;5.85;4.63;;;18.80;92.00;;;;;;2056101;28;20055;-92
2021/09/15 04:52:39;;;;;;;6.07;4.70;;;18.80;92.10;;;;;;2058354;28;20102;-91
2021/09/15 04:53:58;;;;;;;8.02;5.18;;;18.80;92.10;;;;;;2061353;28;20047;-93
2021/09/15 04:55:17;;;;;;;6.18;4.85;;;18.80;92.10;;;;;;2063985;28;20027;-92
2021/09/15 04:56:37;;;;;;;6.18;4.88;;;18.80;92.10;;;;;;2067064;28;20023;-93
2021/09/15 04:57:56;;;;;;;6.05;5.15;;;18.80;92.10;;;;;;2052675;28;20024;-91
2021/09/15 04:59:15;;;;;;;6.07;4.60;;;18.90;92.10;;;;;;2050525;29;20039;-93
2021/09/15 05:00:35;;;;;;;5.75;4.65;;;18.80;92.10;;;;;;2047772;29;20613;-93
2021/09/15 05:01:54;;;;;;;7.00;5.15;;;18.90;92.10;;;;;;2050129;28;20046;-93
2021/09/15 05:03:14;;;;;;;6.60;4.95;;;18.90;92.10;;;;;;2045544;29;20115;-94
2021/09/15 05:04:33;;;;;;;6.53;4.75;;;18.90;92.10;;;;;;2046415;28;20039;-93
2021/09/15 05:05:53;;;;;;;5.82;4.75;;;18.90;92.10;;;;;;2057282;28;20043;-93
2021/09/15 05:07:13;;;;;;;5.85;5.05;;;18.90;92.10;;;;;;2057796;28;20046;-94
2021/09/15 05:08:32;;;;;;;5.90;4.72;;;18.90;92.10;;;;;;2049286;29;20039;-94
2021/09/15 05:09:51;;;;;;;7.25;4.47;;;18.90;92.10;;;;;;2043624;29;20039;-93
2021/09/15 05:11:10;;;;;;;6.10;4.80;;;18.90;92.10;;;;;;2064760;28;20037;-94
2021/09/15 05:12:29;;;;;;;6.30;4.82;;;18.90;92.10;;;;;;2062806;28;20043;-94
2021/09/15 05:13:49;;;;;;;6.03;4.68;;;18.90;92.10;;;;;;2026720;29;20036;-94
2021/09/15 05:15:09;;;;;;;6.03;4.78;;;18.90;92.10;;;;;;2048658;28;20051;-94
2021/09/15 05:16:30;;;;;;;6.88;5.18;;;18.90;92.10;;;;;;2049317;29;20114;-94
2021/09/15 05:17:50;;;;;;;5.68;4.55;;;18.90;92.10;;;;;;2049013;29;20031;-93
2021/09/15 05:19:10;;;;;;;6.35;4.78;;;18.90;92.10;;;;;;2045404;29;20051;-94
2021/09/15 05:20:29;;;;;;;5.80;4.88;;;18.90;92.10;;;;;;2052580;28;20423;-93
2021/09/15 05:21:48;;;;;;;5.75;4.72;;;18.90;92.10;;;;;;2041252;29;20044;-93
2021/09/15 05:23:08;;;;;;;6.80;4.70;;;18.90;92.10;;;;;;2058208;28;20489;-93
2021/09/15 05:24:28;;;;;;;6.50;4.78;;;18.90;92.10;;;;;;2045855;29;20067;-93
2021/09/15 05:25:47;;;;;;;7.20;5.30;;;18.90;92.10;;;;;;2041260;28;20073;-94
2021/09/15 05:27:06;;;;;;;7.40;5.00;;;18.90;92.10;;;;;;2048853;29;20483;-95
2021/09/15 05:28:25;;;;;;;6.63;5.13;;;19.00;92.10;;;;;;2048879;29;20042;-93
2021/09/15 05:29:45;;;;;;;7.13;5.18;;;18.90;92.10;;;;;;2056850;28;20051;-93
2021/09/15 05:31:04;;;;;;;5.90;4.78;;;18.90;92.10;;;;;;2051783;29;20035;-94
2021/09/15 05:32:23;;;;;;;6.05;4.85;;;18.90;92.10;;;;;;2069920;28;20555;-94
2021/09/15 05:33:43;;;;;;;6.68;4.82;;;19.00;92.10;;;;;;2055402;28;20043;-94
2021/09/15 05:35:06;;;;;;;6.85;4.63;;;18.90;92.10;;;;;;2055510;28;20043;-93
2021/09/15 05:36:25;;;;;;;5.32;4.43;;;18.90;92.10;;;;;;2057583;28;20026;-93
2021/09/15 05:37:45;;;;;;;6.00;4.70;;;18.90;92.10;;;;;;2042385;29;20438;-93
2021/09/15 05:39:04;;;;;;;5.80;4.70;;;19.00;92.10;;;;;;2045494;29;20039;-93
2021/09/15 05:40:23;;;;;;;6.53;4.90;;;18.90;92.10;;;;;;2061703;28;20113;-93
2021/09/15 05:41:43;;;;;;;5.75;4.80;;;19.00;92.10;;;;;;2047848;29;20032;-94
2021/09/15 05:43:02;;;;;;;7.10;4.88;;;19.00;92.10;;;;;;2061457;28;20094;-93
2021/09/15 05:44:21;;;;;;;5.93;4.80;;;19.00;92.10;;;;;;2055105;28;20047;-93
2021/09/15 05:45:41;;;;;;;5.88;4.88;;;19.00;92.10;;;;;;2044723;29;20162;-93
2021/09/15 05:47:00;;;;;;;5.65;4.75;;;19.00;92.10;;;;;;2052170;28;20047;-93
2021/09/15 05:48:20;;;;;;;6.75;5.45;;;19.00;92.10;;;;;;2052047;28;20500;-93
2021/09/15 05:49:39;;;;;;;5.82;4.75;;;19.00;92.10;;;;;;2050063;28;20079;-91
2021/09/15 05:50:58;;;;;;;5.60;4.68;;;18.90;92.10;;;;;;2057315;28;20031;-89
2021/09/15 05:52:18;;;;;;;6.20;5.20;;;18.90;92.10;;;;;;2047603;29;20501;-88
2021/09/15 05:53:37;;;;;;;5.95;5.10;;;18.90;92.10;;;;;;2043020;28;20039;-88
2021/09/15 05:54:56;;;;;;;6.03;4.68;;;18.90;92.10;;;;;;2059011;28;20047;-87
2021/09/15 05:56:15;;;;;;;7.55;5.80;;;18.90;92.10;;;;;;2057105;28;20047;-87
2021/09/15 05:57:35;;;;;;;6.88;5.30;;;18.90;92.10;;;;;;2055739;28;20043;-88
2021/09/15 05:58:54;;;;;;;6.13;5.07;;;18.90;92.10;;;;;;2047588;29;20063;-87
2021/09/15 06:00:14;;;;;;;6.15;5.07;;;18.90;92.20;;;;;;2053347;28;20035;-88
2021/09/15 06:01:33;;;;;;;6.38;5.20;;;18.90;92.20;;;;;;2058551;28;20448;-88
2021/09/15 06:02:55;;;;;;;6.40;5.18;;;18.90;92.20;;;;;;2051351;28;20051;-88
2021/09/15 06:04:14;;;;;;;6.57;5.10;;;18.90;92.30;;;;;;2044956;28;20056;-88
2021/09/15 06:05:34;;;;;;;6.57;5.00;;;18.80;92.30;;;;;;2047457;29;20040;-88
2021/09/15 06:06:53;;;;;;;6.45;5.07;;;18.80;92.30;;;;;;2048384;28;20031;-88
2021/09/15 06:08:12;;;;;;;7.68;5.35;;;18.80;92.40;;;;;;2049482;29;20065;-88
2021/09/15 06:09:31;;;;;;;6.45;5.25;;;18.80;92.40;;;;;;2052766;28;20039;-88
2021/09/15 06:10:50;;;;;;;7.78;5.35;;;18.80;92.40;;;;;;2045674;29;20494;-88
2021/09/15 06:12:09;;;;;;;6.22;5.15;;;18.80;92.40;;;;;;2052181;28;20051;-89
2021/09/15 06:13:29;;;;;;;6.55;5.22;;;18.80;92.50;;;;;;2054657;28;20034;-89
2021/09/15 06:14:48;;;;;;;7.43;5.57;;;18.80;92.50;;;;;;2039424;29;20040;-87
2021/09/15 06:16:07;;;;;;;6.65;5.32;;;18.70;92.60;;;;;;2052301;28;20034;-89
2021/09/15 06:17:26;;;;;;;6.10;5.18;;;18.80;92.60;;;;;;2055326;28;20051;-91
2021/09/15 06:18:46;;;;;;;6.28;5.00;;;18.70;92.60;;;;;;2044052;28;20043;-90
2021/09/15 06:20:06;;;;;;;7.28;5.10;;;18.80;92.70;;;;;;2060618;28;20128;-90
2021/09/15 06:21:25;;;;;;;7.20;5.15;;;18.80;92.70;;;;;;2058876;28;20050;-89
2021/09/15 06:22:45;;;;;;;8.38;5.18;;;18.80;92.70;;;;;;2035893;29;20043;-90
2021/09/15 06:24:04;;;;;;;6.00;4.97;;;18.80;92.70;;;;;;2057216;28;20086;-89
2021/09/15 06:25:26;;;;;;;6.47;4.93;;;18.80;92.70;;;;;;2045037;28;20514;-89
2021/09/15 06:26:47;;;;;;;7.07;5.30;;;18.70;92.70;;;;;;2061228;28;20042;-89
2021/09/15 06:28:07;;;;;;;6.72;5.45;;;18.70;92.70;;;;;;2049644;29;20040;-88
2021/09/15 06:29:26;;;;;;;9.27;6.57;;;18.70;92.80;;;;;;2047821;29;20043;-88
2021/09/15 06:30:46;;;;;;;7.78;5.90;;;18.70;92.80;;;;;;2052536;28;20043;-88
2021/09/15 06:32:06;;;;;;;7.10;5.43;;;18.70;92.80;;;;;;2047550;29;20494;-89
2021/09/15 06:33:26;;;;;;;8.18;6.10;;;18.70;92.80;;;;;;2044347;29;20039;-89
2021/09/15 06:34:45;;;;;;;6.85;5.53;;;18.70;92.80;;;;;;2052268;28;20051;-88
2021/09/15 06:36:05;;;;;;;6.68;5.45;;;18.70;92.90;;;;;;2055405;28;20204;-89
2021/09/15 06:37:24;;;;;;;7.22;5.82;;;18.80;92.90;;;;;;2042560;29;20049;-89
2021/09/15 06:38:44;;;;;;;7.82;5.68;;;18.70;92.90;;;;;;2061707;28;20113;-88
2021/09/15 06:40:04;;;;;;;7.43;5.57;;;18.80;92.90;;;;;;2058859;28;20027;-88
2021/09/15 06:41:24;;;;;;;7.22;5.90;;;18.80;92.90;;;;;;2063375;28;20113;-88
2021/09/15 06:42:43;;;;;;;6.50;5.37;;;18.80;92.90;;;;;;2046753;29;20119;-89
2021/09/15 06:44:03;;;;;;;7.50;5.55;;;18.80;92.90;;;;;;2042816;29;20426;-89
2021/09/15 06:45:22;;;;;;;7.43;6.07;;;18.80;92.90;;;;;;2055277;28;20030;-89
2021/09/15 06:46:41;;;;;;;8.10;5.68;;;18.80;92.90;;;;;;2049783;28;20039;-90
2021/09/15 06:48:00;;;;;;;7.00;5.35;;;18.80;93.00;;;;;;2030441;29;20044;-88
2021/09/15 06:49:28;;;;;;;7.45;5.53;;;18.80;93.00;;;;;;2052613;28;20047;-89
2021/09/15 06:50:48;;;;;;;8.23;5.55;;;18.80;93.00;;;;;;2050564;29;20055;-90
2021/09/15 06:52:07;;;;;;;6.53;5.43;;;18.90;93.00;;;;;;2044601;29;20039;-90
2021/09/15 06:53:26;;;;;;;6.80;5.70;;;18.80;93.00;;;;;;2052140;28;20042;-91
2021/09/15 06:54:48;;;;;;;7.93;5.55;;;18.90;93.00;;;;;;2048309;29;20035;-91
2021/09/15 06:56:08;;;;;;;6.50;5.40;;;18.90;93.00;;;;;;2054003;28;20133;-92
2021/09/15 06:57:27;;;;;;;7.28;5.38;;;18.90;93.00;;;;;;2046590;29;20047;-91
2021/09/15 06:58:46;;;;;;;6.43;5.60;;;18.90;93.00;;;;;;2044187;29;20035;-91
2021/09/15 07:00:08;;;;;;;7.90;6.00;;;18.90;93.10;;;;;;2047377;29;20035;-91
2021/09/15 07:01:28;;;;;;;7.97;5.78;;;18.90;93.10;;;;;;2066895;28;20082;-91
2021/09/15 07:02:47;;;;;;;7.32;5.65;;;18.90;93.10;;;;;;2062090;28;20051;-91
2021/09/15 07:04:07;;;;;;;6.82;5.53;;;18.90;93.10;;;;;;2054204;28;20117;-91
2021/09/15 07:05:26;;;;;;;6.70;5.43;;;18.90;93.10;;;;;;2040604;29;20040;-92
2021/09/15 07:06:45;;;;;;;7.20;5.47;;;18.90;93.10;;;;;;2036694;29;20134;-91
2021/09/15 07:08:05;;;;;;;7.13;5.68;;;18.90;93.10;;;;;;2049740;28;20047;-89
2021/09/15 07:09:25;;;;;;;7.32;5.57;;;19.00;93.10;;;;;;2053625;28;20096;-89
2021/09/15 07:10:44;;;;;;;7.60;6.03;;;18.90;93.10;;;;;;2048087;28;20031;-89
2021/09/15 07:12:03;;;;;;;6.68;5.50;;;18.90;93.10;;;;;;2053334;28;20154;-89
2021/09/15 07:13:23;;;;;;;6.85;5.75;;;19.00;93.10;;;;;;2027014;29;20040;-88
2021/09/15 07:14:43;;;;;;;6.75;5.38;;;19.00;93.10;;;;;;2045030;28;20035;-89
2021/09/15 07:16:02;;;;;;;7.15;6.00;;;19.00;93.10;;;;;;2054977;28;20023;-88
2021/09/15 07:17:21;;;;;;;6.45;5.50;;;19.00;93.10;;;;;;2042256;29;20048;-89
2021/09/15 07:18:41;;;;;;;6.82;5.82;;;19.00;93.10;;;;;;2052416;28;20043;-89
2021/09/15 07:20:01;;;;;;;6.38;5.30;;;19.00;93.10;;;;;;2044543;28;20465;-89
2021/09/15 07:21:20;;;;;;;7.00;5.88;;;19.00;93.10;;;;;;2050795;28;20035;-88
2021/09/15 07:22:39;;;;;;;7.10;5.75;;;19.00;93.10;;;;;;2058280;28;20059;-88
2021/09/15 07:23:58;;;;;;;7.38;6.32;;;19.00;93.10;;;;;;2057352;28;20051;-89
2021/09/15 07:25:18;;;;;;;7.55;6.00;;;19.00;93.20;;;;;;2068281;28;20045;-89
2021/09/15 07:26:37;;;;;;;7.05;5.95;;;19.00;93.20;;;;;;2056704;28;20047;-89
2021/09/15 07:27:56;;;;;;;6.88;5.55;;;19.00;93.20;;;;;;2043313;29;20051;-89
2021/09/15 07:29:16;;;;;;;8.32;6.32;;;19.00;93.20;;;;;;2044699;29;20051;-88
2021/09/15 07:30:35;;;;;;;7.78;6.38;;;19.00;93.20;;;;;;2046762;29;20062;-89
2021/09/15 07:31:54;;;;;;;7.88;6.18;;;19.00;93.20;;;;;;2039148;29;20055;-89
2021/09/15 07:33:15;;;;;;;6.95;6.05;;;19.00;93.20;;;;;;2037193;29;20055;-89
2021/09/15 07:34:34;;;;;;;7.30;5.85;;;19.00;93.20;;;;;;2044589;29;20043;-89
2021/09/15 07:35:53;;;;;;;7.53;6.38;;;19.00;93.20;;;;;;2051516;29;20035;-88
2021/09/15 07:37:14;;;;;;;6.68;5.90;;;19.00;93.20;;;;;;2048497;28;20082;-91
2021/09/15 07:38:36;;;;;;;7.32;6.28;;;19.00;93.40;;;;;;2055834;28;20031;-91
2021/09/15 07:39:56;;;;;;;7.70;5.93;;;19.00;93.20;;;;;;2053161;29;20095;-90
2021/09/15 07:41:15;;;;;;;7.93;6.50;;;19.00;93.20;;;;;;2049874;29;20040;-90
2021/09/15 07:42:35;;;;;;;6.47;5.57;;;19.10;93.20;;;;;;2055548;28;20181;-91
2021/09/15 07:43:55;;;;;;;7.07;5.97;;;19.10;93.20;;;;;;2050234;28;20039;-90
2021/09/15 07:45:14;;;;;;;7.70;6.22;;;19.10;93.20;;;;;;2045953;28;20109;-89
2021/09/15 07:46:33;;;;;;;7.00;5.93;;;19.10;93.20;;;;;;2059533;28;20035;-89
2021/09/15 07:47:53;;;;;;;7.47;6.05;;;19.10;93.20;;;;;;2070703;28;20042;-90
2021/09/15 07:49:12;;;;;;;6.88;5.90;;;19.10;93.20;;;;;;2057847;29;20032;-89
2021/09/15 07:50:31;;;;;;;9.00;6.40;;;19.10;93.20;;;;;;2069400;28;20035;-89
2021/09/15 07:51:50;;;;;;;7.30;6.18;;;19.10;93.20;;;;;;2061600;28;20038;-90
2021/09/15 07:53:09;;;;;;;7.03;5.53;;;19.20;93.20;;;;;;2049155;29;20040;-90
2021/09/15 07:54:29;;;;;;;7.10;6.13;;;19.10;93.20;;;;;;2044290;29;20048;-90
2021/09/15 07:55:48;;;;;;;7.60;6.15;;;19.20;93.20;;;;;;2045847;28;20083;-90
2021/09/15 07:57:07;;;;;;;7.15;6.15;;;19.10;93.20;;;;;;2048170;28;20043;-89
2021/09/15 07:58:27;;;;;;;7.22;5.82;;;19.20;93.20;;;;;;2054080;28;20070;-90
2021/09/15 07:59:46;;;;;;;7.60;6.50;;;19.20;93.20;;;;;;2054618;28;20038;-91
2021/09/15 08:01:07;;;;;;;7.40;6.10;;;19.10;93.20;;;;;;2042821;29;20082;-92
2021/09/15 08:02:26;;;;;;;8.23;5.97;;;19.10;93.20;;;;;;2051772;28;20050;-93
2021/09/15 08:03:47;;;;;;;7.47;6.03;;;19.10;93.20;;;;;;2063939;28;20524;-92
2021/09/15 08:05:07;;;;;;;6.70;5.80;;;19.10;93.20;;;;;;2056698;28;20039;-92
2021/09/15 08:06:28;;;;;;;7.78;5.88;;;19.10;93.20;;;;;;2046878;29;20039;-92
2021/09/15 08:07:49;;;;;;;7.28;6.20;;;19.10;93.20;;;;;;2048881;28;20047;-90
2021/09/15 08:09:28;;;;;;;6.93;5.90;;;19.10;93.20;;;;;;2054669;28;20129;-90
2021/09/15 08:11:19;;;;;;;7.60;5.80;;;19.10;93.20;;;;;;2058411;28;20050;-91
2021/09/15 08:13:25;;;;;;;7.35;5.10;;;19.10;93.20;;;;;;2049986;29;20051;-89
2021/09/15 08:14:51;;;;;;;7.00;5.30;;;19.20;93.20;;;;;;2043954;29;20044;-90
2021/09/15 08:16:31;;;;;;;7.43;5.68;;;19.20;93.20;;;;;;2041714;29;20573;-91
2021/09/15 08:17:56;;;;;;;7.28;5.78;;;19.20;93.20;;;;;;2041458;29;20048;-91
2021/09/15 08:19:40;;;;;;;7.32;5.97;;;19.20;93.10;;;;;;2032711;29;20047;-91
2021/09/15 08:21:47;;;;;;;7.07;5.75;;;19.20;93.10;;;;;;2017587;29;20072;-90
2021/09/15 08:23:37;;;;;;;6.72;5.47;;;19.20;93.10;;;;;;2009435;29;21038;-90
2021/09/15 08:25:30;;;;;;;7.50;5.68;;;19.30;93.10;;;;;;2011116;29;20467;-90
2021/09/15 08:27:37;;;;;;;6.55;5.25;;;19.30;93.00;;;;;;1986298;29;20406;-90
2021/09/15 08:55:20;;;;;;;9.23;7.30;;;19.80;92.50;;;;;;2066314;28;20050;-90
2021/09/15 08:56:39;;;;;;;10.23;7.72;;;19.80;92.50;;;;;;2052407;29;20534;-90
2021/09/15 08:58:00;;;;;;;10.13;8.25;;;19.70;92.50;;;;;;2055318;28;20031;-92
2021/09/15 08:59:19;;;;;;;10.52;8.90;;;19.80;92.60;;;;;;2051440;29;20035;-87